createdAt,value
2018-08-25T00:02:13.267Z,11.60
2018-08-25T00:04:41.568Z,11.10
2018-08-25T00:07:10.008Z,11.53
2018-08-25T00:09:39.406Z,11.93
2018-08-25T00:12:07.709Z,11.47
2018-08-25T00:14:36.013Z,11.60
2018-08-25T00:17:04.541Z,12.80
2018-08-25T00:19:32.845Z,12.70
2018-08-25T00:22:01.198Z,11.73
2018-08-25T00:24:29.496Z,11.00
2018-08-25T00:26:57.804Z,11.30
2018-08-25T00:29:26.094Z,11.93
2018-08-25T00:31:54.360Z,12.77
2018-08-25T00:34:23.014Z,11.17
2018-08-25T00:36:51.315Z,11.83
2018-08-25T00:39:19.607Z,12.73
2018-08-25T00:41:47.885Z,12.77
2018-08-25T00:44:16.184Z,13.23
2018-08-25T00:46:45.015Z,12.53
2018-08-25T00:49:13.457Z,12.83
2018-08-25T00:51:41.758Z,13.93
2018-08-25T00:54:10.030Z,12.70
2018-08-25T00:56:38.325Z,11.90
2018-08-25T00:59:06.619Z,13.60
2018-08-25T01:01:34.900Z,13.47
2018-08-25T01:04:03.203Z,13.37
2018-08-25T01:06:31.567Z,12.70
2018-08-25T01:08:59.963Z,12.63
2018-08-25T01:11:28.246Z,12.73
2018-08-25T01:13:56.529Z,12.13
2018-08-25T01:16:24.821Z,13.03
2018-08-25T01:18:53.096Z,13.10
2018-08-25T01:21:44.014Z,12.97
2018-08-25T01:24:12.279Z,12.30
2018-08-25T01:26:40.560Z,12.33
2018-08-25T01:29:08.828Z,12.20
2018-08-25T01:31:37.099Z,13.10
2018-08-25T01:34:05.394Z,12.13
2018-08-25T01:36:33.682Z,13.30
2018-08-25T01:39:01.953Z,11.77
2018-08-25T01:41:30.248Z,12.10
2018-08-25T01:43:58.520Z,11.27
2018-08-25T01:46:26.806Z,12.87
2018-08-25T01:48:55.080Z,12.00
2018-08-25T01:51:23.362Z,11.83
2018-08-25T01:53:51.628Z,12.47
2018-08-25T01:56:19.920Z,12.10
2018-08-25T01:58:48.229Z,12.37
2018-08-25T02:01:16.492Z,12.13
2018-08-25T02:03:44.768Z,12.10
2018-08-25T02:06:13.059Z,12.07
2018-08-25T02:08:41.357Z,11.20
2018-08-25T02:11:09.657Z,11.00
2018-08-25T02:13:37.925Z,11.03
2018-08-25T02:16:06.856Z,12.20
2018-08-25T02:18:35.136Z,10.70
2018-08-25T02:21:03.456Z,10.50
2018-08-25T02:23:31.745Z,11.73
2018-08-25T02:26:00.025Z,11.63
2018-08-25T02:28:28.309Z,11.90
2018-08-25T02:30:56.596Z,11.30
2018-08-25T02:33:24.924Z,10.43
2018-08-25T02:35:53.228Z,11.60
2018-08-25T02:38:21.504Z,11.70
2018-08-25T02:40:49.829Z,10.87
2018-08-25T02:43:18.116Z,11.50
2018-08-25T02:45:46.428Z,11.87
2018-08-25T02:48:14.713Z,9.77
2018-08-25T02:50:42.996Z,11.03
2018-08-25T02:53:11.265Z,11.87
2018-08-25T02:55:39.529Z,11.30
2018-08-25T02:58:07.827Z,10.57
2018-08-25T03:00:36.093Z,10.60
2018-08-25T03:03:04.382Z,10.80
2018-08-25T03:05:32.666Z,10.10
2018-08-25T03:08:00.964Z,10.07
2018-08-25T03:10:29.254Z,10.30
2018-08-25T03:12:57.520Z,10.67
2018-08-25T03:15:25.801Z,10.43
2018-08-25T03:17:54.085Z,10.43
2018-08-25T03:20:22.369Z,10.43
2018-08-25T03:22:50.636Z,10.10
2018-08-25T03:25:18.921Z,11.10
2018-08-25T03:27:47.191Z,11.20
2018-08-25T03:30:15.449Z,10.93
2018-08-25T03:32:43.725Z,10.90
2018-08-25T03:35:12.840Z,11.07
2018-08-25T03:37:41.109Z,11.50
2018-08-25T03:40:09.384Z,9.77
2018-08-25T03:42:37.656Z,10.73
2018-08-25T03:45:05.965Z,9.90
2018-08-25T03:47:34.237Z,9.50
2018-08-25T03:50:02.529Z,10.33
2018-08-25T03:52:30.804Z,10.60
2018-08-25T03:54:59.080Z,10.67
2018-08-25T03:57:27.365Z,9.97
2018-08-25T03:59:55.640Z,10.90
2018-08-25T04:02:24.100Z,10.03
2018-08-25T04:04:52.384Z,9.47
2018-08-25T04:07:20.651Z,8.70
2018-08-25T04:09:48.929Z,9.40
2018-08-25T04:12:17.203Z,7.40
2018-08-25T04:14:45.520Z,9.73
2018-08-25T04:17:13.769Z,9.73
2018-08-25T04:19:42.049Z,9.63
2018-08-25T04:22:10.345Z,8.90
2018-08-25T04:24:38.604Z,9.10
2018-08-25T04:27:06.879Z,6.87
2018-08-25T04:29:35.155Z,9.63
2018-08-25T04:32:03.459Z,9.13
2018-08-25T04:34:31.755Z,8.77
2018-08-25T04:37:00.024Z,8.50
2018-08-25T04:39:28.288Z,7.93
2018-08-25T04:41:56.577Z,8.90
2018-08-25T04:44:24.852Z,8.83
2018-08-25T04:46:53.125Z,8.70
2018-08-25T04:49:21.390Z,8.93
2018-08-25T04:51:49.696Z,8.73
2018-08-25T04:54:17.975Z,8.70
2018-08-25T04:56:46.275Z,8.73
2018-08-25T04:59:14.554Z,8.53
2018-08-25T05:01:42.857Z,7.97
2018-08-25T05:04:11.086Z,7.73
2018-08-25T05:06:39.365Z,8.10
2018-08-25T05:09:09.160Z,7.93
2018-08-25T05:11:37.444Z,7.33
2018-08-25T05:14:05.724Z,8.77
2018-08-25T05:16:33.998Z,7.67
2018-08-25T05:19:02.301Z,7.70
2018-08-25T05:21:30.585Z,7.63
2018-08-25T05:23:58.872Z,6.90
2018-08-25T05:26:27.127Z,7.77
2018-08-25T05:28:55.395Z,7.57
2018-08-25T05:31:23.664Z,8.03
2018-08-25T05:33:51.947Z,7.70
2018-08-25T05:36:20.241Z,7.70
2018-08-25T05:38:48.538Z,7.37
2018-08-25T05:41:16.833Z,7.57
2018-08-25T05:43:45.120Z,7.43
2018-08-25T05:46:13.386Z,7.40
2018-08-25T05:48:41.657Z,7.30
2018-08-25T05:51:09.917Z,7.90
2018-08-25T05:53:38.206Z,7.80
2018-08-25T05:56:06.587Z,7.83
2018-08-25T05:58:34.849Z,7.27
2018-08-25T06:01:03.173Z,7.77
2018-08-25T06:03:31.425Z,7.57
2018-08-25T06:05:59.697Z,8.20
2018-08-25T06:08:27.977Z,7.67
2018-08-25T06:10:56.292Z,7.87
2018-08-25T06:13:24.573Z,7.63
2018-08-25T06:15:52.826Z,7.70
2018-08-25T06:18:21.097Z,7.13
2018-08-25T06:20:49.384Z,7.57
2018-08-25T06:23:17.656Z,7.90
2018-08-25T06:25:45.936Z,7.93
2018-08-25T06:28:14.225Z,7.60
2018-08-25T06:30:42.492Z,7.50
2018-08-25T06:33:10.757Z,7.27
2018-08-25T06:35:39.016Z,7.23
2018-08-25T06:38:07.307Z,7.67
2018-08-25T06:40:35.585Z,7.30
2018-08-25T06:43:03.883Z,7.17
2018-08-25T06:45:32.160Z,7.03
2018-08-25T06:48:00.429Z,6.80
2018-08-25T06:50:28.709Z,6.30
2018-08-25T06:52:56.977Z,6.10
2018-08-25T06:55:25.262Z,6.40
2018-08-25T06:57:53.550Z,6.43
2018-08-25T07:00:21.818Z,6.40
2018-08-25T07:02:50.101Z,5.87
2018-08-25T07:05:18.804Z,5.97
2018-08-25T07:07:47.097Z,5.87
2018-08-25T07:10:15.364Z,5.87
2018-08-25T07:12:43.667Z,5.90
2018-08-25T07:15:11.912Z,6.20
2018-08-25T07:17:40.177Z,5.73
2018-08-25T07:20:08.460Z,6.07
2018-08-25T07:22:50.745Z,5.83
2018-08-25T07:25:19.033Z,6.33
2018-08-25T07:27:47.292Z,6.60
2018-08-25T07:30:15.565Z,5.53
2018-08-25T07:32:43.842Z,6.17
2018-08-25T07:35:12.112Z,6.00
2018-08-25T07:37:40.377Z,5.97
2018-08-25T07:40:08.700Z,9.67
2018-08-25T07:42:36.998Z,30.97
2018-08-25T07:45:05.605Z,34.00
2018-08-25T07:47:33.877Z,51.97
2018-08-25T07:50:02.150Z,88.57
2018-08-25T07:52:30.440Z,30.97
2018-08-25T07:54:58.721Z,13.27
2018-08-25T07:57:26.991Z,6.63
2018-08-25T07:59:55.302Z,5.80
2018-08-25T08:02:23.552Z,8.50
2018-08-25T08:04:51.953Z,6.70
2018-08-25T08:07:20.184Z,6.20
2018-08-25T08:09:48.496Z,8.17
2018-08-25T08:12:16.813Z,6.50
2018-08-25T08:14:45.045Z,6.03
2018-08-25T08:17:13.315Z,6.27
2018-08-25T08:19:41.576Z,6.97
2018-08-25T08:22:09.845Z,7.43
2018-08-25T08:24:38.117Z,6.93
2018-08-25T08:27:06.764Z,7.23
2018-08-25T08:29:35.072Z,7.40
2018-08-25T08:32:03.332Z,6.27
2018-08-25T08:34:31.629Z,6.60
2018-08-25T08:36:59.891Z,6.10
2018-08-25T08:39:28.228Z,6.97
2018-08-25T08:41:56.478Z,6.30
2018-08-25T08:44:24.763Z,6.47
2018-08-25T08:46:53.066Z,5.90
2018-08-25T08:49:21.349Z,5.80
2018-08-25T08:51:49.636Z,5.53
2018-08-25T08:54:17.914Z,5.37
2018-08-25T08:56:46.189Z,6.10
2018-08-25T08:59:14.489Z,5.60
2018-08-25T09:01:42.770Z,5.30
2018-08-25T09:04:11.090Z,5.37
2018-08-25T09:06:39.357Z,5.50
2018-08-25T09:09:09.171Z,4.80
2018-08-25T09:11:37.627Z,5.13
2018-08-25T09:14:05.893Z,5.10
2018-08-25T09:16:34.172Z,4.97
2018-08-25T09:19:02.474Z,5.43
2018-08-25T09:21:30.741Z,5.70
2018-08-25T09:23:59.004Z,4.80
2018-08-25T09:26:27.301Z,4.40
2018-08-25T09:28:55.596Z,5.13
2018-08-25T09:31:23.869Z,4.23
2018-08-25T09:33:52.140Z,4.40
2018-08-25T09:36:21.010Z,4.93
2018-08-25T09:38:49.658Z,4.63
2018-08-25T09:41:17.916Z,4.27
2018-08-25T09:43:46.173Z,4.10
2018-08-25T09:46:14.436Z,4.00
2018-08-25T09:48:42.722Z,10.97
2018-08-25T09:51:11.006Z,4.30
2018-08-25T09:53:39.381Z,4.03
2018-08-25T09:56:07.553Z,4.00
2018-08-25T09:58:35.817Z,3.90
2018-08-25T10:01:05.610Z,3.97
2018-08-25T10:03:34.899Z,4.20
2018-08-25T10:06:03.208Z,8.47
2018-08-25T10:08:31.512Z,11.00
2018-08-25T10:10:59.814Z,9.93
2018-08-25T10:13:28.076Z,3.20
2018-08-25T10:15:56.332Z,3.43
2018-08-25T10:18:24.639Z,4.00
2018-08-25T10:20:52.916Z,3.03
2018-08-25T10:23:21.241Z,3.43
2018-08-25T10:25:49.468Z,3.43
2018-08-25T10:28:17.740Z,3.20
2018-08-25T10:30:46.019Z,3.20
2018-08-25T10:33:14.274Z,3.20
2018-08-25T10:35:42.579Z,3.47
2018-08-25T10:38:10.829Z,3.50
2018-08-25T10:40:39.113Z,3.37
2018-08-25T10:43:07.386Z,3.23
2018-08-25T10:45:35.653Z,3.50
2018-08-25T10:48:03.981Z,3.17
2018-08-25T10:50:32.197Z,3.37
2018-08-25T10:53:00.477Z,3.40
2018-08-25T10:55:28.780Z,3.40
2018-08-25T10:57:57.074Z,4.13
2018-08-25T11:00:25.437Z,3.30
2018-08-25T11:02:53.616Z,3.60
2018-08-25T11:05:21.908Z,3.70
2018-08-25T11:07:50.169Z,3.63
2018-08-25T11:10:18.444Z,3.30
2018-08-25T11:12:46.722Z,3.30
2018-08-25T11:15:15.000Z,3.50
2018-08-25T11:17:43.274Z,3.67
2018-08-25T11:20:11.544Z,3.60
2018-08-25T11:22:39.820Z,3.70
2018-08-25T11:25:08.099Z,3.63
2018-08-25T11:27:36.356Z,3.97
2018-08-25T11:30:04.728Z,4.17
2018-08-25T11:32:33.017Z,3.80
2018-08-25T11:35:01.298Z,3.73
2018-08-25T11:37:29.733Z,3.60
2018-08-25T11:39:58.000Z,3.67
2018-08-25T11:42:26.277Z,3.77
2018-08-25T11:44:54.557Z,3.93
2018-08-25T11:47:22.836Z,3.60
2018-08-25T11:49:51.117Z,3.67
2018-08-25T11:52:19.397Z,4.20
2018-08-25T11:54:47.676Z,6.17
2018-08-25T11:57:15.949Z,4.20
2018-08-25T11:59:44.212Z,4.70
2018-08-25T12:02:12.560Z,4.33
2018-08-25T12:04:40.773Z,4.83
2018-08-25T12:07:09.040Z,4.87
2018-08-25T12:09:37.416Z,4.37
2018-08-25T12:12:05.596Z,4.80
2018-08-25T12:14:33.945Z,4.07
2018-08-25T12:17:02.224Z,4.10
2018-08-25T12:19:30.537Z,4.67
2018-08-25T12:21:58.809Z,4.43
2018-08-25T12:24:27.150Z,4.20
2018-08-25T12:26:56.360Z,4.10
2018-08-25T12:29:24.629Z,4.23
2018-08-25T12:31:52.905Z,3.93
2018-08-25T12:34:21.177Z,4.50
2018-08-25T12:36:49.461Z,4.60
2018-08-25T12:39:17.748Z,4.57
2018-08-25T12:41:46.012Z,4.23
2018-08-25T12:44:14.286Z,3.47
2018-08-25T12:46:42.565Z,3.40
2018-08-25T12:49:10.841Z,3.53
2018-08-25T12:51:39.182Z,3.67
2018-08-25T12:54:07.396Z,3.70
2018-08-25T12:56:35.680Z,4.47
2018-08-25T12:59:03.987Z,5.17
2018-08-25T13:01:32.283Z,4.37
2018-08-25T13:04:00.557Z,4.87
2018-08-25T13:06:28.933Z,5.00
2018-08-25T13:08:57.204Z,5.47
2018-08-25T13:11:25.481Z,4.90
2018-08-25T13:13:53.779Z,5.00
2018-08-25T13:16:22.046Z,4.93
2018-08-25T13:18:50.385Z,5.00
2018-08-25T13:21:18.605Z,4.50
2018-08-25T13:23:46.925Z,4.03
2018-08-25T13:26:15.193Z,4.07
2018-08-25T13:28:43.468Z,4.70
2018-08-25T13:31:11.757Z,4.20
2018-08-25T13:33:40.017Z,4.20
2018-08-25T13:36:08.301Z,3.80
2018-08-25T13:38:36.584Z,4.60
2018-08-25T13:41:04.968Z,4.43
2018-08-25T13:43:33.273Z,4.77
2018-08-25T13:46:01.555Z,4.40
2018-08-25T13:48:29.833Z,4.50
2018-08-25T13:50:58.175Z,4.50
2018-08-25T13:53:26.389Z,5.10
2018-08-25T13:55:54.775Z,5.07
2018-08-25T13:58:23.160Z,5.07
2018-08-25T14:00:51.331Z,5.20
2018-08-25T14:03:19.597Z,4.60
2018-08-25T14:05:47.868Z,5.03
2018-08-25T14:08:16.229Z,4.73
2018-08-25T14:10:44.419Z,5.00
2018-08-25T14:13:12.676Z,4.10
2018-08-25T14:15:40.948Z,4.27
2018-08-25T14:18:09.224Z,4.20
2018-08-25T14:20:37.525Z,4.77
2018-08-25T14:23:05.864Z,4.80
2018-08-25T14:25:34.153Z,4.43
2018-08-25T14:28:02.457Z,3.97
2018-08-25T14:30:30.749Z,3.87
2018-08-25T14:32:59.073Z,4.20
2018-08-25T14:35:27.340Z,4.70
2018-08-25T14:37:55.613Z,4.87
2018-08-25T14:40:23.882Z,4.80
2018-08-25T14:42:52.154Z,4.23
2018-08-25T14:45:20.443Z,4.53
2018-08-25T14:47:48.733Z,4.00
2018-08-25T14:50:17.023Z,4.13
2018-08-25T14:52:45.297Z,3.57
2018-08-25T14:55:13.577Z,3.80
2018-08-25T14:57:41.854Z,3.30
2018-08-25T15:00:10.122Z,3.60
2018-08-25T15:02:38.397Z,3.17
2018-08-25T15:05:07.064Z,3.33
2018-08-25T15:07:35.349Z,3.37
2018-08-25T15:10:03.660Z,3.90
2018-08-25T15:12:31.928Z,3.57
2018-08-25T15:15:00.238Z,3.70
2018-08-25T15:17:28.521Z,3.70
2018-08-25T15:19:56.828Z,3.30
2018-08-25T15:22:25.098Z,3.63
2018-08-25T15:24:53.385Z,3.37
2018-08-25T15:27:21.742Z,3.57
2018-08-25T15:29:49.938Z,3.90
2018-08-25T15:32:18.218Z,3.80
2018-08-25T15:34:46.502Z,3.20
2018-08-25T15:37:14.757Z,3.90
2018-08-25T15:39:43.044Z,3.63
2018-08-25T15:42:11.336Z,3.20
2018-08-25T15:44:39.633Z,3.93
2018-08-25T15:47:07.892Z,3.33
2018-08-25T15:49:36.204Z,3.70
2018-08-25T15:52:04.537Z,3.60
2018-08-25T15:54:32.809Z,3.53
2018-08-25T15:57:01.097Z,3.50
2018-08-25T15:59:29.414Z,3.37
2018-08-25T16:01:57.684Z,3.60
2018-08-25T16:04:25.973Z,3.87
2018-08-25T16:06:54.252Z,3.00
2018-08-25T16:09:22.528Z,3.27
2018-08-25T16:11:50.846Z,3.40
2018-08-25T16:14:19.085Z,3.53
2018-08-25T16:16:47.373Z,3.10
2018-08-25T16:19:15.683Z,3.67
2018-08-25T16:21:43.925Z,3.67
2018-08-25T16:24:12.212Z,3.30
2018-08-25T16:26:40.494Z,3.33
2018-08-25T16:29:08.776Z,3.00
2018-08-25T16:31:37.037Z,3.57
2018-08-25T16:34:05.330Z,3.10
2018-08-25T16:36:33.615Z,3.70
2018-08-25T16:39:01.937Z,3.83
2018-08-25T16:41:30.228Z,3.43
2018-08-25T16:43:58.510Z,4.07
2018-08-25T16:46:26.878Z,3.43
2018-08-25T16:48:55.387Z,3.87
2018-08-25T16:51:23.677Z,3.57
2018-08-25T16:53:51.957Z,3.10
2018-08-25T16:56:20.245Z,3.77
2018-08-25T16:58:48.544Z,4.30
2018-08-25T17:01:16.852Z,3.30
2018-08-25T17:03:45.137Z,2.87
2018-08-25T17:06:13.409Z,3.03
2018-08-25T17:08:41.812Z,3.57
2018-08-25T17:11:10.029Z,3.70
2018-08-25T17:13:38.312Z,3.70
2018-08-25T17:16:06.616Z,3.50
2018-08-25T17:18:34.894Z,3.30
2018-08-25T17:21:03.239Z,3.50
2018-08-25T17:23:31.475Z,3.20
2018-08-25T17:25:59.820Z,3.10
2018-08-25T17:28:28.541Z,3.40
2018-08-25T17:30:56.824Z,3.60
2018-08-25T17:33:25.105Z,3.30
2018-08-25T17:35:53.394Z,3.30
2018-08-25T17:38:21.707Z,3.30
2018-08-25T17:40:49.985Z,3.60
2018-08-25T17:43:18.245Z,4.10
2018-08-25T17:45:46.516Z,4.20
2018-08-25T17:48:14.789Z,3.73
2018-08-25T17:50:43.072Z,4.17
2018-08-25T17:53:11.448Z,3.97
2018-08-25T17:55:39.721Z,3.63
2018-08-25T17:58:07.997Z,3.23
2018-08-25T18:00:36.285Z,3.90
2018-08-25T18:03:04.625Z,3.60
2018-08-25T18:05:32.912Z,3.93
2018-08-25T18:08:01.230Z,3.93
2018-08-25T18:10:29.548Z,3.50
2018-08-25T18:12:57.837Z,3.60
2018-08-25T18:15:26.121Z,3.50
2018-08-25T18:17:54.403Z,4.00
2018-08-25T18:20:22.685Z,3.60
2018-08-25T18:22:50.949Z,3.57
2018-08-25T18:25:19.233Z,3.90
2018-08-25T18:27:47.493Z,3.30
2018-08-25T18:30:15.848Z,3.63
2018-08-25T18:32:44.044Z,3.97
2018-08-25T18:35:12.325Z,4.17
2018-08-25T18:37:40.580Z,3.70
2018-08-25T18:40:08.879Z,4.00
2018-08-25T18:42:37.175Z,3.93
2018-08-25T18:45:05.730Z,3.87
2018-08-25T18:47:34.009Z,3.67
2018-08-25T18:50:02.317Z,3.80
2018-08-25T18:52:30.577Z,4.10
2018-08-25T18:54:58.993Z,4.10
2018-08-25T18:57:27.145Z,3.50
2018-08-25T18:59:55.413Z,3.70
2018-08-25T19:02:23.762Z,3.83
2018-08-25T19:04:51.993Z,3.80
2018-08-25T19:07:20.284Z,3.80
2018-08-25T19:09:48.549Z,3.70
2018-08-25T19:12:16.821Z,3.70
2018-08-25T19:14:45.090Z,4.17
2018-08-25T19:17:13.377Z,3.30
2018-08-25T19:19:41.644Z,3.70
2018-08-25T19:22:10.378Z,3.80
2018-08-25T19:24:38.675Z,4.30
2018-08-25T19:27:07.254Z,4.10
2018-08-25T19:29:35.605Z,3.80
2018-08-25T19:32:03.881Z,3.40
2018-08-25T19:34:32.161Z,4.00
2018-08-25T19:37:00.496Z,3.60
2018-08-25T19:39:28.764Z,3.37
2018-08-25T19:41:57.049Z,3.43
2018-08-25T19:44:25.314Z,3.60
2018-08-25T19:46:53.635Z,3.40
2018-08-25T19:49:21.854Z,3.70
2018-08-25T19:51:50.125Z,3.60
2018-08-25T19:54:18.397Z,3.10
2018-08-25T19:56:46.668Z,3.40
2018-08-25T19:59:14.985Z,3.80
2018-08-25T20:01:43.268Z,3.70
2018-08-25T20:04:11.563Z,3.80
2018-08-25T20:06:39.857Z,3.57
2018-08-25T20:09:08.419Z,3.77
2018-08-25T20:11:37.284Z,3.57
2018-08-25T20:14:05.645Z,2.80
2018-08-25T20:16:33.911Z,2.73
2018-08-25T20:19:02.836Z,2.40
2018-08-25T20:21:31.096Z,3.40
2018-08-25T20:23:59.379Z,3.67
2018-08-25T20:26:27.636Z,3.13
2018-08-25T20:28:55.926Z,2.30
2018-08-25T20:31:24.194Z,2.93
2018-08-25T20:33:52.452Z,3.00
2018-08-25T20:36:20.710Z,2.63
2018-08-25T20:38:48.997Z,2.60
2018-08-25T20:41:17.284Z,3.70
2018-08-25T20:43:45.564Z,3.00
2018-08-25T20:46:13.850Z,2.70
2018-08-25T20:48:42.124Z,2.93
2018-08-25T20:51:10.413Z,3.30
2018-08-25T20:53:38.692Z,3.37
2018-08-25T20:56:06.961Z,3.63
2018-08-25T20:58:35.232Z,3.73
2018-08-25T21:01:03.525Z,3.60
2018-08-25T21:03:31.806Z,3.50
2018-08-25T21:06:00.091Z,3.67
2018-08-25T21:08:28.365Z,3.60
2018-08-25T21:10:56.640Z,3.40
2018-08-25T21:13:24.953Z,3.70
2018-08-25T21:15:53.282Z,2.83
2018-08-25T21:18:21.484Z,4.00
2018-08-25T21:20:49.790Z,3.30
2018-08-25T21:23:18.077Z,3.50
2018-08-25T21:25:46.365Z,4.53
2018-08-25T21:28:14.646Z,3.20
2018-08-25T21:30:42.925Z,2.70
2018-08-25T21:33:11.192Z,2.40
2018-08-25T21:35:39.476Z,2.20
2018-08-25T21:38:07.747Z,2.23
2018-08-25T21:40:36.045Z,2.07
2018-08-25T21:43:04.314Z,1.80
2018-08-25T21:45:32.577Z,1.67
2018-08-25T21:48:00.864Z,2.00
2018-08-25T21:50:29.126Z,2.10
2018-08-25T21:52:57.413Z,2.17
2018-08-25T21:55:25.908Z,2.00
2018-08-25T21:57:54.181Z,2.10
2018-08-25T22:00:22.485Z,1.90
2018-08-25T22:02:50.753Z,1.70
2018-08-25T22:05:19.039Z,1.77
2018-08-25T22:07:47.324Z,1.77
2018-08-25T22:10:15.605Z,2.00
2018-08-25T22:12:43.881Z,2.10
2018-08-25T22:15:12.145Z,2.40
2018-08-25T22:17:40.429Z,1.93
2018-08-25T22:20:08.727Z,2.10
2018-08-25T22:22:37.006Z,2.00
2018-08-25T22:25:05.329Z,2.27
2018-08-25T22:27:33.593Z,2.70
2018-08-25T22:30:01.909Z,2.30
2018-08-25T22:32:30.169Z,2.27
2018-08-25T22:34:58.444Z,2.30
2018-08-25T22:37:26.724Z,2.43
2018-08-25T22:39:54.997Z,2.30
2018-08-25T22:42:23.261Z,2.20
2018-08-25T22:44:51.517Z,2.00
2018-08-25T22:47:19.793Z,2.20
2018-08-25T22:49:48.065Z,2.40
2018-08-25T22:52:19.609Z,2.60
2018-08-25T22:54:47.913Z,2.60
2018-08-25T22:57:16.182Z,2.83
2018-08-25T22:59:44.493Z,2.80
2018-08-25T23:02:12.756Z,2.60
2018-08-25T23:04:41.038Z,2.60
2018-08-25T23:07:09.334Z,2.87
2018-08-25T23:09:37.604Z,2.70
2018-08-25T23:12:05.908Z,2.43
2018-08-25T23:14:34.193Z,2.67
2018-08-25T23:17:02.453Z,2.37
2018-08-25T23:19:30.714Z,2.60
2018-08-25T23:21:58.979Z,2.63
2018-08-25T23:24:27.250Z,2.60
2018-08-25T23:26:55.520Z,2.70
2018-08-25T23:29:23.792Z,2.40
2018-08-25T23:31:52.069Z,2.80
2018-08-25T23:34:20.335Z,2.80
2018-08-25T23:36:48.619Z,2.50
2018-08-25T23:39:16.902Z,3.07
2018-08-25T23:41:45.166Z,3.00
2018-08-25T23:44:13.505Z,3.30
2018-08-25T23:46:41.794Z,2.97
2018-08-25T23:49:10.053Z,3.80
2018-08-25T23:51:38.344Z,3.13
2018-08-25T23:54:06.821Z,3.43
2018-08-25T23:56:35.098Z,4.10
2018-08-25T23:59:03.398Z,3.40
